Time;durP1;ratioP1;P1;durP2;ratioP2;P2;SDS_P1;SDS_P2;PMS_P1;PMS_P2;Temp;Humidity;BMP_temperature;BMP_pressure;BME280_temperature;BME280_humidity;BME280_pressure;Samples;Min_cycle;Max_cycle;Signal;HPM_P1;HPM_P2
2022/07/19 00:03:22;;;;;;;;;;;28.40;37.20;;;;;;8364236;28;19923;-43
2022/07/19 00:07:23;;;;;;;;;;;28.40;37.20;;;;;;8363684;28;19928;-42
2022/07/19 00:11:23;;;;;;;;;;;28.30;37.20;;;;;;8363057;28;19927;-43
2022/07/19 00:15:23;;;;;;;;;;;28.30;37.20;;;;;;8363564;28;19925;-44
2022/07/19 00:19:24;;;;;;;;;;;28.30;37.20;;;;;;8363510;28;20428;-43
2022/07/19 00:23:24;;;;;;;;;;;28.30;37.20;;;;;;8363195;28;19913;-45
2022/07/19 00:27:25;;;;;;;;;;;28.30;37.20;;;;;;8363518;28;19948;-44
2022/07/19 00:31:25;;;;;;;;;;;28.30;37.30;;;;;;8363366;28;19924;-43
2022/07/19 00:35:26;;;;;;;;;;;28.30;37.30;;;;;;8367424;28;20347;-44
2022/07/19 00:39:26;;;;;;;;;;;28.30;37.30;;;;;;8374098;28;19913;-43
2022/07/19 00:43:26;;;;;;;;;;;28.20;37.20;;;;;;8374385;28;19913;-44
2022/07/19 00:47:27;;;;;;;;;;;28.20;37.20;;;;;;8373485;28;19921;-44
2022/07/19 00:51:28;;;;;;;;;;;28.20;37.20;;;;;;8373835;28;19975;-45
2022/07/19 00:55:29;;;;;;;;;;;28.20;37.30;;;;;;8373880;28;19982;-43
2022/07/19 00:59:30;;;;;;;;;;;28.20;37.20;;;;;;8373383;28;19913;-43
2022/07/19 01:03:34;;;;;;;;;;;28.20;37.30;;;;;;8372779;28;20417;-43
2022/07/19 01:07:34;;;;;;;;;;;28.20;37.30;;;;;;8373310;28;20424;-42
2022/07/19 01:11:35;;;;;;;;;;;28.20;37.30;;;;;;8373889;28;19917;-43
2022/07/19 01:15:35;;;;;;;;;;;28.20;37.30;;;;;;8373837;28;20438;-43
2022/07/19 01:19:36;;;;;;;;;;;28.10;37.20;;;;;;8373109;28;20007;-43
2022/07/19 01:23:36;;;;;;;;;;;28.10;37.20;;;;;;8373800;28;20296;-43
2022/07/19 01:27:41;;;;;;;;;;;28.10;37.30;;;;;;8373912;28;20014;-43
2022/07/19 01:31:41;;;;;;;;;;;28.10;37.30;;;;;;8372787;28;19924;-42
2022/07/19 01:35:42;;;;;;;;;;;28.10;37.30;;;;;;8373326;28;20429;-43
2022/07/19 01:39:42;;;;;;;;;;;28.10;37.30;;;;;;8373203;28;19928;-43
2022/07/19 01:43:44;;;;;;;;;;;28.10;37.30;;;;;;8372954;28;19927;-43
2022/07/19 01:47:44;;;;;;;;;;;28.10;37.30;;;;;;8368913;28;19917;-43
2022/07/19 01:51:45;;;;;;;;;;;28.10;37.30;;;;;;8367833;28;19917;-43
2022/07/19 01:55:45;;;;;;;;;;;28.10;37.30;;;;;;8367110;28;19974;-42
2022/07/19 01:59:46;;;;;;;;;;;28.00;37.30;;;;;;8367619;28;19920;-44
2022/07/19 02:03:46;;;;;;;;;;;28.00;37.30;;;;;;8367709;28;19971;-43
2022/07/19 02:07:47;;;;;;;;;;;28.00;37.30;;;;;;8366817;28;19913;-44
2022/07/19 02:11:47;;;;;;;;;;;28.00;37.30;;;;;;8367257;28;19916;-43
2022/07/19 02:15:48;;;;;;;;;;;28.00;37.30;;;;;;8366898;28;20424;-43
2022/07/19 02:19:48;;;;;;;;;;;28.00;37.30;;;;;;8367406;28;19944;-43
2022/07/19 02:23:49;;;;;;;;;;;28.00;37.30;;;;;;8366849;28;19917;-44
2022/07/19 02:27:49;;;;;;;;;;;28.00;37.90;;;;;;8366685;28;19917;-43
2022/07/19 02:31:50;;;;;;;;;;;28.00;37.30;;;;;;8366048;28;19916;-45
2022/07/19 02:35:50;;;;;;;;;;;27.90;37.30;;;;;;8366430;28;20004;-44
2022/07/19 02:39:50;;;;;;;;;;;27.90;37.30;;;;;;8366668;28;19920;-45
2022/07/19 02:43:51;;;;;;;;;;;27.90;37.30;;;;;;8365776;28;19917;-45
2022/07/19 02:47:51;;;;;;;;;;;27.90;37.30;;;;;;8366362;28;19924;-44
2022/07/19 02:51:52;;;;;;;;;;;27.90;37.30;;;;;;8365956;28;19963;-43
2022/07/19 02:55:53;;;;;;;;;;;27.90;37.30;;;;;;8365312;28;19928;-43
2022/07/19 02:59:53;;;;;;;;;;;27.80;37.30;;;;;;8364926;28;19920;-45
2022/07/19 03:03:54;;;;;;;;;;;27.80;37.30;;;;;;8365525;28;19921;-45
2022/07/19 03:07:54;;;;;;;;;;;27.80;37.30;;;;;;8365013;28;19967;-43
2022/07/19 03:11:55;;;;;;;;;;;27.80;37.30;;;;;;8365602;28;20336;-43
2022/07/19 03:15:55;;;;;;;;;;;27.80;37.30;;;;;;8365472;28;19988;-44
2022/07/19 03:19:55;;;;;;;;;;;27.80;37.30;;;;;;8364951;28;20439;-43
2022/07/19 03:23:56;;;;;;;;;;;27.80;37.30;;;;;;8364868;28;20127;-43
2022/07/19 03:27:56;;;;;;;;;;;27.80;37.30;;;;;;8365020;28;20365;-44
2022/07/19 03:31:57;;;;;;;;;;;27.80;37.40;;;;;;8364142;28;19916;-44
2022/07/19 03:35:58;;;;;;;;;;;27.70;37.30;;;;;;8364819;28;19981;-44
2022/07/19 03:39:58;;;;;;;;;;;27.80;37.40;;;;;;8364748;28;20397;-44
2022/07/19 03:43:59;;;;;;;;;;;27.70;37.30;;;;;;8363792;28;20008;-43
2022/07/19 03:48:00;;;;;;;;;;;27.70;37.30;;;;;;8364441;28;19947;-43
2022/07/19 03:52:00;;;;;;;;;;;27.70;37.30;;;;;;8377021;28;19924;-42
2022/07/19 03:56:01;;;;;;;;;;;27.70;37.30;;;;;;8396514;28;20301;-43
2022/07/19 04:00:02;;;;;;;;;;;27.70;37.40;;;;;;8397176;28;19912;-42
2022/07/19 04:04:02;;;;;;;;;;;27.70;37.40;;;;;;8397030;28;20377;-43
2022/07/19 04:08:03;;;;;;;;;;;27.60;37.30;;;;;;8363526;28;19967;-42
2022/07/19 04:12:04;;;;;;;;;;;27.60;37.30;;;;;;8342709;28;19931;-43
2022/07/19 04:16:04;;;;;;;;;;;27.60;37.30;;;;;;8363696;28;20483;-44
2022/07/19 04:20:06;;;;;;;;;;;27.60;37.30;;;;;;8363278;28;19920;-43
2022/07/19 04:24:06;;;;;;;;;;;27.60;37.40;;;;;;8363604;28;20365;-43
2022/07/19 04:28:07;;;;;;;;;;;27.60;37.40;;;;;;8363275;28;19971;-44
2022/07/19 04:32:07;;;;;;;;;;;27.60;37.40;;;;;;8362667;28;20039;-43
2022/07/19 04:36:08;;;;;;;;;;;27.60;37.40;;;;;;8363113;28;19990;-44
2022/07/19 04:40:09;;;;;;;;;;;27.60;37.40;;;;;;8363446;28;19913;-46
2022/07/19 04:44:09;;;;;;;;;;;27.50;37.30;;;;;;8362642;28;19917;-43
2022/07/19 04:48:10;;;;;;;;;;;27.50;37.40;;;;;;8362938;28;19978;-43
2022/07/19 04:52:10;;;;;;;;;;;27.50;37.40;;;;;;8362992;28;19925;-43
2022/07/19 04:56:11;;;;;;;;;;;27.50;37.30;;;;;;8362393;28;19913;-43
2022/07/19 05:00:11;;;;;;;;;;;27.50;37.40;;;;;;8363133;28;19963;-44
2022/07/19 05:04:12;;;;;;;;;;;27.50;37.40;;;;;;8362914;28;19921;-43
2022/07/19 05:08:12;;;;;;;;;;;27.50;37.40;;;;;;8362214;28;20417;-43
2022/07/19 05:12:13;;;;;;;;;;;27.50;38.00;;;;;;8362517;28;19924;-45
2022/07/19 05:16:13;;;;;;;;;;;27.40;37.40;;;;;;8362484;28;20015;-43
2022/07/19 05:20:15;;;;;;;;;;;27.40;37.30;;;;;;8362252;28;19917;-43
2022/07/19 05:24:16;;;;;;;;;;;27.40;37.40;;;;;;8367983;28;19917;-43
2022/07/19 05:28:16;;;;;;;;;;;27.40;37.30;;;;;;8368501;28;19919;-44
2022/07/19 05:32:17;;;;;;;;;;;27.40;37.30;;;;;;8367802;28;19929;-43
2022/07/19 05:36:17;;;;;;;;;;;27.40;37.30;;;;;;8368288;28;19920;-43
2022/07/19 05:40:18;;;;;;;;;;;27.50;37.30;;;;;;8368071;28;19940;-43
2022/07/19 05:44:18;;;;;;;;;;;27.50;37.30;;;;;;8367510;28;19923;-42
2022/07/19 05:48:19;;;;;;;;;;;27.50;37.20;;;;;;8367901;28;20347;-43
2022/07/19 05:52:19;;;;;;;;;;;27.50;37.10;;;;;;8367740;28;19921;-43
2022/07/19 05:56:20;;;;;;;;;;;27.50;37.10;;;;;;8367376;28;19921;-43
2022/07/19 06:00:20;;;;;;;;;;;27.50;37.10;;;;;;8367843;28;19924;-43
2022/07/19 06:04:20;;;;;;;;;;;27.50;37.20;;;;;;8367387;28;19955;-43
2022/07/19 06:08:21;;;;;;;;;;;27.50;37.20;;;;;;8366832;28;19916;-43
2022/07/19 06:12:21;;;;;;;;;;;27.50;37.20;;;;;;8367075;28;20452;-44
2022/07/19 06:16:22;;;;;;;;;;;27.40;37.20;;;;;;8367344;28;19924;-43
2022/07/19 06:20:22;;;;;;;;;;;27.40;37.20;;;;;;8366505;28;19916;-43
2022/07/19 06:24:23;;;;;;;;;;;27.40;37.20;;;;;;8366814;28;19921;-42
2022/07/19 06:28:24;;;;;;;;;;;27.40;37.20;;;;;;8366791;28;20279;-43
2022/07/19 06:32:24;;;;;;;;;;;27.40;37.20;;;;;;8365714;28;20290;-43
2022/07/19 06:36:25;;;;;;;;;;;27.40;37.20;;;;;;8366783;28;19917;-44
2022/07/19 06:40:25;;;;;;;;;;;27.40;37.20;;;;;;8348369;28;20386;-44
2022/07/19 06:44:26;;;;;;;;;;;27.40;37.20;;;;;;8365766;28;20326;-43
2022/07/19 06:48:26;;;;;;;;;;;27.40;37.20;;;;;;8365935;28;19959;-44
2022/07/19 06:52:26;;;;;;;;;;;27.40;37.20;;;;;;8365782;28;20308;-43
2022/07/19 06:56:27;;;;;;;;;;;27.40;37.10;;;;;;8365495;28;20022;-44
2022/07/19 07:00:28;;;;;;;;;;;27.40;37.20;;;;;;8365693;28;19921;-45
2022/07/19 07:04:28;;;;;;;;;;;27.40;37.10;;;;;;8364759;28;19917;-44
2022/07/19 07:08:28;;;;;;;;;;;27.40;37.10;;;;;;8364990;28;19917;-44
2022/07/19 07:12:29;;;;;;;;;;;27.40;37.10;;;;;;8365299;28;19982;-44
2022/07/19 07:16:30;;;;;;;;;;;27.40;37.10;;;;;;8365420;28;20381;-43
2022/07/19 07:20:30;;;;;;;;;;;27.40;37.10;;;;;;8364517;28;19917;-44
2022/07/19 07:24:30;;;;;;;;;;;27.40;37.10;;;;;;8365148;28;19917;-44
2022/07/19 07:28:31;;;;;;;;;;;27.40;37.10;;;;;;8364723;28;19917;-44
2022/07/19 07:32:31;;;;;;;;;;;27.40;37.20;;;;;;8363936;28;20381;-44
2022/07/19 07:36:32;;;;;;;;;;;27.40;37.20;;;;;;8364988;28;20358;-44
2022/07/19 07:40:32;;;;;;;;;;;27.40;37.20;;;;;;8364777;28;19943;-45
2022/07/19 07:44:33;;;;;;;;;;;27.40;37.20;;;;;;8363343;28;20267;-44
2022/07/19 07:48:33;;;;;;;;;;;27.40;37.20;;;;;;8364157;28;19927;-44
2022/07/19 07:52:34;;;;;;;;;;;27.40;37.10;;;;;;8363466;28;19936;-45
2022/07/19 07:56:35;;;;;;;;;;;27.40;37.20;;;;;;8364008;28;19913;-45
2022/07/19 08:00:35;;;;;;;;;;;27.40;37.10;;;;;;8363830;28;19921;-45
2022/07/19 08:04:36;;;;;;;;;;;27.40;37.10;;;;;;8363265;28;19956;-45
2022/07/19 08:08:39;;;;;;;;;;;27.50;37.20;;;;;;8363260;28;20400;-45
2022/07/19 08:12:39;;;;;;;;;;;27.50;37.20;;;;;;8363351;28;19925;-44
2022/07/19 08:16:40;;;;;;;;;;;27.50;37.20;;;;;;8363434;28;19920;-45
2022/07/19 08:20:40;;;;;;;;;;;27.50;37.20;;;;;;8363499;28;19923;-44
2022/07/19 08:24:41;;;;;;;;;;;27.50;37.20;;;;;;8363706;28;19917;-44
2022/07/19 08:28:42;;;;;;;;;;;27.50;37.20;;;;;;8362849;28;19924;-44
2022/07/19 08:32:42;;;;;;;;;;;27.50;37.30;;;;;;8363222;28;19932;-44
2022/07/19 08:36:43;;;;;;;;;;;27.50;37.30;;;;;;8363401;28;20366;-44
2022/07/19 08:40:43;;;;;;;;;;;27.60;37.30;;;;;;8362737;28;20345;-44
2022/07/19 08:44:44;;;;;;;;;;;27.60;37.30;;;;;;8363236;28;20372;-44
2022/07/19 08:48:45;;;;;;;;;;;27.60;37.30;;;;;;8363188;28;19921;-44
2022/07/19 08:52:46;;;;;;;;;;;27.60;37.30;;;;;;8362562;28;19928;-45
2022/07/19 09:01:06;;;;;;;;;;;27.60;37.30;;;;;;8373605;28;19970;-44
2022/07/19 09:05:08;;;;;;;;;;;27.70;37.40;;;;;;8369010;28;19917;-44
2022/07/19 09:09:09;;;;;;;;;;;27.70;37.40;;;;;;8369422;28;19953;-44
2022/07/19 09:13:13;;;;;;;;;;;27.70;37.40;;;;;;8369230;28;19925;-44
2022/07/19 09:17:16;;;;;;;;;;;27.70;37.40;;;;;;8366367;28;19927;-44
2022/07/19 09:21:17;;;;;;;;;;;27.70;36.60;;;;;;8366325;28;19917;-46
2022/07/19 09:25:32;;;;;;;;;;;27.80;36.40;;;;;;8370059;28;20289;-45
2022/07/19 09:29:33;;;;;;;;;;;27.80;36.70;;;;;;8366874;28;19920;-46
2022/07/19 09:33:34;;;;;;;;;;;27.90;36.80;;;;;;8366266;28;19925;-44
2022/07/19 09:37:35;;;;;;;;;;;27.90;36.80;;;;;;8365328;28;19963;-45
2022/07/19 09:41:35;;;;;;;;;;;28.00;36.90;;;;;;8365255;28;20010;-45
2022/07/19 09:45:36;;;;;;;;;;;28.00;36.90;;;;;;8365231;28;19917;-44
2022/07/19 09:49:36;;;;;;;;;;;28.00;36.90;;;;;;8365167;28;19940;-44
2022/07/19 09:53:37;;;;;;;;;;;28.10;37.00;;;;;;8367702;28;19925;-44
2022/07/19 09:57:44;;;;;;;;;;;28.00;36.90;;;;;;8368022;28;19920;-45
2022/07/19 10:01:48;;;;;;;;;;;28.10;37.00;;;;;;8366973;28;19917;-44
2022/07/19 10:05:48;;;;;;;;;;;28.10;37.00;;;;;;8342606;28;19917;-45
2022/07/19 10:09:49;;;;;;;;;;;28.10;37.00;;;;;;8366644;28;19924;-46
2022/07/19 10:13:50;;;;;;;;;;;28.10;37.00;;;;;;8366932;28;19975;-44
2022/07/19 10:17:58;;;;;;;;;;;28.20;37.10;;;;;;8367640;28;19913;-45
2022/07/19 10:21:59;;;;;;;;;;;28.20;37.10;;;;;;8367220;28;19992;-45
2022/07/19 10:26:00;;;;;;;;;;;28.30;37.10;;;;;;8366468;28;20281;-45
2022/07/19 10:30:09;;;;;;;;;;;28.30;37.10;;;;;;8366833;28;20007;-44
2022/07/19 10:34:10;;;;;;;;;;;28.30;37.00;;;;;;8366633;28;19924;-44
2022/07/19 10:38:11;;;;;;;;;;;28.40;37.10;;;;;;8366076;28;19913;-46
2022/07/19 10:42:19;;;;;;;;;;;28.40;37.00;;;;;;8366940;28;20422;-44
2022/07/19 10:46:29;;;;;;;;;;;28.40;37.00;;;;;;8366457;28;19923;-48
2022/07/19 10:50:46;;;;;;;;;;;28.40;37.00;;;;;;8365769;28;19917;-44
2022/07/19 10:54:46;;;;;;;;;;;28.40;37.00;;;;;;8366232;28;19982;-44
2022/07/19 10:58:48;;;;;;;;;;;28.50;37.00;;;;;;8365342;28;19921;-44
2022/07/19 11:02:50;;;;;;;;;;;28.50;37.00;;;;;;8366336;28;20423;-45
2022/07/19 11:06:51;;;;;;;;;;;28.50;37.00;;;;;;8365901;28;19923;-44
2022/07/19 11:11:01;;;;;;;;;;;28.50;37.00;;;;;;8365027;28;20004;-45
2022/07/19 11:15:03;;;;;;;;;;;28.60;37.00;;;;;;8365664;28;20473;-44
2022/07/19 11:19:05;;;;;;;;;;;28.60;37.00;;;;;;8364422;28;19944;-44
2022/07/19 11:23:05;;;;;;;;;;;28.60;37.00;;;;;;8364838;28;20289;-44
2022/07/19 11:27:05;;;;;;;;;;;28.60;37.00;;;;;;8365001;28;19923;-44
2022/07/19 11:31:15;;;;;;;;;;;28.70;37.00;;;;;;8364701;28;19917;-44
2022/07/19 11:35:16;;;;;;;;;;;28.70;37.00;;;;;;8364069;28;20385;-44
2022/07/19 11:39:17;;;;;;;;;;;28.70;37.00;;;;;;8364880;28;19919;-44
2022/07/19 11:43:17;;;;;;;;;;;28.80;37.00;;;;;;8363182;28;19917;-44
2022/07/19 11:47:19;;;;;;;;;;;28.80;37.00;;;;;;8363174;28;20370;-44
2022/07/19 11:51:19;;;;;;;;;;;28.90;32.60;;;;;;8364126;28;19923;-45
2022/07/19 11:55:21;;;;;;;;;;;29.20;31.80;;;;;;8362450;28;19952;-44
2022/07/19 11:59:21;;;;;;;;;;;29.40;30.00;;;;;;8363000;28;19921;-45
2022/07/19 12:03:22;;;;;;;;;;;29.60;29.70;;;;;;8363286;28;19917;-44
2022/07/19 12:07:22;;;;;;;;;;;29.70;29.40;;;;;;8363224;28;20361;-44
2022/07/19 12:11:24;;;;;;;;;;;29.70;29.40;;;;;;8362096;28;19974;-45
2022/07/19 12:15:24;;;;;;;;;;;29.80;30.30;;;;;;8360577;28;20313;-44
2022/07/19 12:19:29;;;;;;;;;;;29.60;30.50;;;;;;8360495;28;19971;-45
2022/07/19 12:23:29;;;;;;;;;;;29.50;31.10;;;;;;8360052;28;20061;-44
2022/07/19 12:27:30;;;;;;;;;;;29.40;31.50;;;;;;8361816;28;19924;-44
2022/07/19 12:31:42;;;;;;;;;;;29.30;32.20;;;;;;8362977;28;19962;-44
2022/07/19 12:35:42;;;;;;;;;;;29.30;32.70;;;;;;8363249;28;19924;-44
2022/07/19 12:39:54;;;;;;;;;;;29.30;33.10;;;;;;8363275;28;19923;-44
2022/07/19 12:43:55;;;;;;;;;;;29.30;33.30;;;;;;8363011;28;19913;-44
2022/07/19 12:47:56;;;;;;;;;;;29.30;33.30;;;;;;8363095;28;19940;-44
2022/07/19 12:51:56;;;;;;;;;;;29.30;33.80;;;;;;8363134;28;19917;-44
2022/07/19 12:55:57;;;;;;;;;;;29.30;34.00;;;;;;8362378;28;19924;-44
2022/07/19 12:59:57;;;;;;;;;;;29.20;34.10;;;;;;8362965;28;19917;-44
2022/07/19 13:03:58;;;;;;;;;;;29.30;34.30;;;;;;8362919;28;19919;-44
2022/07/19 13:07:58;;;;;;;;;;;29.30;34.40;;;;;;8362246;28;20004;-44
2022/07/19 13:12:00;;;;;;;;;;;29.30;34.50;;;;;;8361930;28;20377;-44
2022/07/19 13:16:00;;;;;;;;;;;29.30;34.60;;;;;;8362849;28;20317;-44
2022/07/19 13:20:01;;;;;;;;;;;29.30;34.70;;;;;;8362228;28;19923;-44
2022/07/19 13:24:01;;;;;;;;;;;29.30;34.70;;;;;;8362652;28;19920;-44
2022/07/19 13:28:02;;;;;;;;;;;29.30;34.80;;;;;;8362639;28;19967;-44
2022/07/19 13:32:03;;;;;;;;;;;29.30;34.80;;;;;;8361845;28;19944;-44
2022/07/19 13:36:04;;;;;;;;;;;29.30;34.90;;;;;;8362337;28;19935;-45
2022/07/19 13:40:05;;;;;;;;;;;29.40;35.00;;;;;;8362362;28;19925;-45
2022/07/19 13:44:06;;;;;;;;;;;29.40;34.90;;;;;;8365490;28;19999;-44
2022/07/19 13:48:06;;;;;;;;;;;29.40;34.80;;;;;;8368280;28;20370;-45
2022/07/19 13:52:07;;;;;;;;;;;29.40;35.00;;;;;;8351072;28;19963;-44
2022/07/19 13:56:07;;;;;;;;;;;29.40;34.90;;;;;;8347777;28;19921;-44
2022/07/19 14:00:08;;;;;;;;;;;29.40;35.00;;;;;;8367901;28;19916;-45
2022/07/19 14:04:09;;;;;;;;;;;29.40;35.20;;;;;;8368050;28;19913;-44
2022/07/19 14:08:09;;;;;;;;;;;29.40;35.20;;;;;;8367110;28;19916;-44
2022/07/19 14:12:10;;;;;;;;;;;29.40;35.10;;;;;;8367252;28;19952;-45
2022/07/19 14:16:11;;;;;;;;;;;29.50;35.30;;;;;;8367221;28;19931;-44
2022/07/19 14:20:11;;;;;;;;;;;29.50;35.30;;;;;;8366779;28;19917;-44
2022/07/19 14:24:12;;;;;;;;;;;29.50;35.30;;;;;;8365360;28;19916;-44
2022/07/19 14:28:12;;;;;;;;;;;29.50;35.30;;;;;;8354110;28;19917;-46
2022/07/19 14:32:12;;;;;;;;;;;29.50;35.40;;;;;;8360226;28;19917;-44
2022/07/19 14:36:13;;;;;;;;;;;29.50;35.30;;;;;;8366547;28;19921;-44
2022/07/19 14:40:13;;;;;;;;;;;29.50;35.30;;;;;;8366543;28;19917;-44
2022/07/19 14:44:14;;;;;;;;;;;29.50;35.40;;;;;;8366059;28;19956;-44
2022/07/19 14:48:15;;;;;;;;;;;29.50;35.40;;;;;;8357777;28;20048;-44
2022/07/19 14:52:15;;;;;;;;;;;29.50;35.50;;;;;;8352762;28;19927;-45
2022/07/19 14:56:15;;;;;;;;;;;29.50;35.50;;;;;;8365112;28;19947;-45
2022/07/19 15:00:16;;;;;;;;;;;29.60;35.50;;;;;;8365785;28;19963;-44
2022/07/19 15:04:17;;;;;;;;;;;29.60;35.60;;;;;;8365977;28;19913;-45
2022/07/19 15:08:17;;;;;;;;;;;29.60;35.60;;;;;;8364810;28;19921;-43
2022/07/19 15:12:18;;;;;;;;;;;29.60;35.60;;;;;;8365417;28;19985;-44
2022/07/19 15:16:19;;;;;;;;;;;29.60;35.60;;;;;;8365209;28;20333;-44
2022/07/19 15:20:22;;;;;;;;;;;29.60;35.60;;;;;;8364394;28;20358;-43
2022/07/19 15:24:22;;;;;;;;;;;29.60;35.60;;;;;;8365396;28;20278;-44
2022/07/19 15:28:23;;;;;;;;;;;29.70;35.70;;;;;;8364484;28;19959;-45
2022/07/19 15:32:23;;;;;;;;;;;29.60;35.60;;;;;;8364407;28;19917;-43
2022/07/19 15:36:24;;;;;;;;;;;29.60;35.40;;;;;;8364619;28;19928;-43
2022/07/19 15:40:24;;;;;;;;;;;29.60;35.60;;;;;;8364538;28;20423;-44
2022/07/19 15:44:25;;;;;;;;;;;29.60;35.70;;;;;;8364239;28;19948;-43
2022/07/19 15:48:25;;;;;;;;;;;29.70;35.70;;;;;;8364267;28;20289;-43
2022/07/19 15:52:26;;;;;;;;;;;29.70;35.50;;;;;;8364173;28;19917;-43
2022/07/19 15:56:26;;;;;;;;;;;29.70;35.60;;;;;;8363782;28;19966;-43
2022/07/19 16:00:27;;;;;;;;;;;29.70;35.70;;;;;;8363947;28;19913;-43
2022/07/19 16:04:28;;;;;;;;;;;29.70;35.80;;;;;;8363863;28;19916;-43
2022/07/19 16:08:28;;;;;;;;;;;29.70;35.80;;;;;;8362012;28;20347;-43
2022/07/19 16:12:29;;;;;;;;;;;29.70;35.80;;;;;;8363614;28;20393;-43
2022/07/19 16:16:29;;;;;;;;;;;29.70;35.80;;;;;;8363487;28;19920;-44
2022/07/19 16:20:30;;;;;;;;;;;29.70;35.80;;;;;;8362980;28;19913;-43
2022/07/19 16:24:30;;;;;;;;;;;29.70;35.90;;;;;;8363773;28;19919;-44
2022/07/19 16:28:31;;;;;;;;;;;29.70;36.40;;;;;;8363373;28;20362;-44
2022/07/19 16:32:31;;;;;;;;;;;29.70;35.90;;;;;;8362785;28;19921;-44
2022/07/19 16:36:32;;;;;;;;;;;29.70;35.90;;;;;;8362973;28;19927;-43
2022/07/19 16:40:32;;;;;;;;;;;29.70;36.00;;;;;;8363503;28;19913;-45
2022/07/19 16:44:33;;;;;;;;;;;29.70;36.00;;;;;;8362675;28;19920;-45
2022/07/19 16:48:33;;;;;;;;;;;29.70;36.00;;;;;;8363121;28;19948;-44
2022/07/19 16:52:34;;;;;;;;;;;29.70;36.00;;;;;;8362453;28;19967;-44
2022/07/19 16:56:34;;;;;;;;;;;29.70;36.00;;;;;;8351668;28;20016;-44
2022/07/19 17:00:34;;;;;;;;;;;29.70;36.00;;;;;;8363012;28;19913;-44
2022/07/19 17:04:36;;;;;;;;;;;29.70;36.00;;;;;;8362545;28;19924;-43
2022/07/19 17:08:37;;;;;;;;;;;29.80;36.10;;;;;;8362685;28;20382;-43
2022/07/19 17:12:41;;;;;;;;;;;29.70;36.10;;;;;;8375541;28;19977;-45
2022/07/19 17:16:42;;;;;;;;;;;29.70;36.10;;;;;;8368364;28;20278;-44
2022/07/19 17:20:42;;;;;;;;;;;29.80;32.40;;;;;;8358813;28;19924;-43
2022/07/19 17:24:43;;;;;;;;;;;30.40;29.70;;;;;;8355109;28;19963;-43
2022/07/19 17:28:43;;;;;;;;;;;30.80;28.10;;;;;;8363921;28;19925;-46
2022/07/19 17:32:44;;;;;;;;;;;31.00;27.50;;;;;;8339144;28;19925;-44
2022/07/19 17:36:44;;;;;;;;;;;31.20;27.00;;;;;;8358612;28;19974;-44
2022/07/19 17:40:45;;;;;;;;;;;31.20;27.60;;;;;;8358795;28;20048;-44
2022/07/19 17:44:45;;;;;;;;;;;31.30;27.00;;;;;;8336493;28;19921;-43
2022/07/19 17:48:46;;;;;;;;;;;31.40;26.60;;;;;;8354959;28;19917;-49
2022/07/19 17:52:46;;;;;;;;;;;31.30;25.90;;;;;;8375033;28;19924;-44
2022/07/19 17:56:47;;;;;;;;;;;31.40;25.80;;;;;;8394672;28;19952;-45
2022/07/19 18:00:47;;;;;;;;;;;31.30;25.90;;;;;;8372769;28;19967;-45
2022/07/19 18:04:48;;;;;;;;;;;31.30;26.30;;;;;;8357106;28;19921;-44
2022/07/19 18:08:48;;;;;;;;;;;31.20;26.30;;;;;;8356572;28;19921;-45
2022/07/19 18:12:49;;;;;;;;;;;31.10;26.80;;;;;;8366813;28;19924;-41
2022/07/19 18:16:50;;;;;;;;;;;31.00;27.00;;;;;;8369502;28;19924;-45
2022/07/19 18:20:50;;;;;;;;;;;30.90;27.10;;;;;;8379948;28;20271;-45
2022/07/19 18:24:54;;;;;;;;;;;30.80;27.30;;;;;;8349000;28;19917;-45
2022/07/19 18:28:54;;;;;;;;;;;30.70;27.90;;;;;;8357608;28;19992;-46
2022/07/19 18:32:55;;;;;;;;;;;30.60;28.40;;;;;;8348169;28;20298;-42
2022/07/19 18:36:55;;;;;;;;;;;30.60;28.50;;;;;;8317633;28;19916;-45
2022/07/19 18:40:56;;;;;;;;;;;30.50;29.20;;;;;;8366205;28;19919;-45
2022/07/19 18:44:56;;;;;;;;;;;30.50;29.40;;;;;;8366373;28;19917;-46
2022/07/19 18:48:57;;;;;;;;;;;30.40;29.70;;;;;;8366383;28;19939;-45
2022/07/19 18:52:57;;;;;;;;;;;30.40;30.00;;;;;;8365656;28;19925;-44
2022/07/19 18:56:58;;;;;;;;;;;30.30;30.00;;;;;;8366320;28;19944;-45
2022/07/19 19:00:59;;;;;;;;;;;30.30;30.30;;;;;;8366411;28;20294;-44
2022/07/19 19:04:59;;;;;;;;;;;30.20;30.40;;;;;;8365457;28;19917;-44
2022/07/19 19:09:00;;;;;;;;;;;30.20;30.70;;;;;;8364414;28;20404;-45
2022/07/19 19:13:01;;;;;;;;;;;30.20;30.60;;;;;;8365734;28;19929;-45
2022/07/19 19:17:02;;;;;;;;;;;30.20;30.80;;;;;;8359101;28;19956;-44
2022/07/19 19:21:02;;;;;;;;;;;30.10;30.70;;;;;;8337042;28;19921;-45
2022/07/19 19:25:03;;;;;;;;;;;30.10;30.80;;;;;;8360348;28;19917;-45
2022/07/19 19:29:03;;;;;;;;;;;30.10;30.90;;;;;;8365138;28;19920;-46
2022/07/19 19:33:05;;;;;;;;;;;30.10;31.10;;;;;;8364932;28;20016;-44
2022/07/19 19:37:06;;;;;;;;;;;30.00;31.20;;;;;;8364689;28;19925;-43
2022/07/19 19:41:07;;;;;;;;;;;30.10;31.40;;;;;;8363575;28;19913;-45
2022/07/19 19:45:09;;;;;;;;;;;30.10;31.40;;;;;;8363693;28;21284;-44
2022/07/19 19:49:10;;;;;;;;;;;30.00;31.50;;;;;;8364555;28;20373;-45
2022/07/19 19:53:11;;;;;;;;;;;30.00;31.50;;;;;;8363812;28;19924;-44
2022/07/19 19:57:11;;;;;;;;;;;30.00;31.50;;;;;;8364153;28;19919;-44
2022/07/19 20:01:12;;;;;;;;;;;30.00;31.60;;;;;;8364302;28;19916;-45
2022/07/19 20:05:14;;;;;;;;;;;29.90;31.70;;;;;;8363541;28;19924;-46
2022/07/19 20:09:15;;;;;;;;;;;29.90;31.80;;;;;;8364053;28;19916;-46
2022/07/19 20:13:15;;;;;;;;;;;29.90;31.90;;;;;;8363913;28;19958;-45
2022/07/19 20:17:15;;;;;;;;;;;29.90;31.90;;;;;;8363331;28;19917;-45
2022/07/19 20:21:16;;;;;;;;;;;29.80;32.00;;;;;;8364076;28;19983;-45
2022/07/19 20:25:17;;;;;;;;;;;29.80;32.10;;;;;;8363762;28;19925;-45
2022/07/19 20:29:17;;;;;;;;;;;29.80;32.20;;;;;;8363063;28;19916;-45
2022/07/19 20:33:17;;;;;;;;;;;29.80;32.30;;;;;;8363594;28;19931;-45
2022/07/19 20:37:18;;;;;;;;;;;29.80;32.40;;;;;;8363429;28;19913;-45
2022/07/19 20:41:19;;;;;;;;;;;29.80;32.40;;;;;;8362958;28;19912;-44
2022/07/19 20:45:20;;;;;;;;;;;29.70;32.50;;;;;;8363330;28;19963;-45
2022/07/19 20:49:21;;;;;;;;;;;29.80;32.60;;;;;;8363153;28;19917;-45
2022/07/19 20:53:21;;;;;;;;;;;29.70;32.60;;;;;;8367048;28;20377;-46
2022/07/19 20:57:22;;;;;;;;;;;29.70;32.60;;;;;;8370121;28;20043;-45
2022/07/19 21:01:22;;;;;;;;;;;29.70;32.70;;;;;;8370134;28;19996;-45
2022/07/19 21:05:23;;;;;;;;;;;29.70;32.70;;;;;;8369172;28;19917;-47
2022/07/19 21:09:23;;;;;;;;;;;29.70;32.80;;;;;;8369520;28;19960;-46
2022/07/19 21:13:24;;;;;;;;;;;29.70;32.80;;;;;;8369341;28;19925;-44
2022/07/19 21:17:24;;;;;;;;;;;29.70;32.80;;;;;;8369104;28;19923;-45
2022/07/19 21:21:25;;;;;;;;;;;29.70;32.90;;;;;;8369643;28;19920;-45
2022/07/19 21:25:25;;;;;;;;;;;29.70;32.90;;;;;;8369124;28;19930;-45
2022/07/19 21:29:26;;;;;;;;;;;29.70;33.00;;;;;;8368464;28;19917;-46
2022/07/19 21:33:26;;;;;;;;;;;29.60;32.90;;;;;;8368898;28;20294;-46
2022/07/19 21:37:27;;;;;;;;;;;29.70;33.00;;;;;;8369210;28;20416;-45
2022/07/19 21:41:27;;;;;;;;;;;29.70;33.00;;;;;;8368360;28;20375;-48
2022/07/19 21:45:28;;;;;;;;;;;29.70;33.00;;;;;;8368369;28;20392;-45
2022/07/19 21:49:28;;;;;;;;;;;29.60;33.00;;;;;;8368632;28;20373;-46
2022/07/19 21:53:29;;;;;;;;;;;29.60;33.10;;;;;;8367530;28;19924;-47
2022/07/19 21:57:29;;;;;;;;;;;29.60;33.10;;;;;;8368202;28;19920;-46
2022/07/19 22:01:30;;;;;;;;;;;29.60;33.10;;;;;;8373156;28;19921;-45
2022/07/19 22:05:30;;;;;;;;;;;29.60;33.20;;;;;;8376427;28;19917;-45
2022/07/19 22:09:31;;;;;;;;;;;29.60;33.20;;;;;;8366720;28;19917;-44
2022/07/19 22:13:31;;;;;;;;;;;29.60;33.20;;;;;;8367449;28;20430;-45
2022/07/19 22:17:32;;;;;;;;;;;29.60;33.30;;;;;;8367142;28;19913;-45
2022/07/19 22:21:32;;;;;;;;;;;29.60;33.30;;;;;;8367319;28;20408;-46
2022/07/19 22:25:33;;;;;;;;;;;29.60;33.30;;;;;;8367137;28;20003;-45
2022/07/19 22:29:33;;;;;;;;;;;29.60;33.30;;;;;;8366693;28;19943;-45
2022/07/19 22:33:33;;;;;;;;;;;29.60;33.40;;;;;;8366917;28;19925;-45
2022/07/19 22:37:34;;;;;;;;;;;29.50;33.40;;;;;;8366593;28;20320;-43
2022/07/19 22:41:34;;;;;;;;;;;29.50;33.40;;;;;;8366995;28;20143;-45
2022/07/19 22:45:35;;;;;;;;;;;29.50;33.40;;;;;;8366518;28;19971;-45
2022/07/19 22:49:35;;;;;;;;;;;29.50;33.50;;;;;;8366161;28;20031;-45
2022/07/19 22:53:36;;;;;;;;;;;29.50;33.50;;;;;;8366323;28;19925;-45
2022/07/19 22:57:36;;;;;;;;;;;29.50;33.60;;;;;;8366418;28;19994;-45
2022/07/19 23:01:37;;;;;;;;;;;29.50;33.60;;;;;;8365626;28;20289;-45
2022/07/19 23:05:37;;;;;;;;;;;29.50;33.70;;;;;;8365953;28;19924;-45
2022/07/19 23:09:37;;;;;;;;;;;29.50;33.70;;;;;;8365861;28;19917;-45
2022/07/19 23:13:39;;;;;;;;;;;29.50;33.70;;;;;;8365167;28;20564;-45
2022/07/19 23:17:39;;;;;;;;;;;29.40;33.70;;;;;;8365590;28;19913;-43
2022/07/19 23:21:40;;;;;;;;;;;29.40;33.70;;;;;;8365688;28;19939;-45
2022/07/19 23:25:41;;;;;;;;;;;29.40;33.80;;;;;;8364855;28;19924;-44